createdAt,value
2019-06-19T00:04:12.391Z,16.00
2019-06-19T00:09:53.949Z,16.03
2019-06-19T00:15:34.925Z,15.70
2019-06-19T00:21:15.688Z,16.27
2019-06-19T00:26:56.400Z,16.30
2019-06-19T00:32:28.051Z,16.07
2019-06-19T00:38:10.771Z,15.87
2019-06-19T00:43:51.249Z,16.10
2019-06-19T00:49:32.244Z,16.03
2019-06-19T00:55:34.757Z,15.40
2019-06-19T01:01:24.195Z,16.30
2019-06-19T01:07:04.715Z,16.10
2019-06-19T01:12:45.563Z,16.20
2019-06-19T01:18:26.568Z,16.40
2019-06-19T01:24:07.349Z,15.73
2019-06-19T01:30:08.889Z,16.20
2019-06-19T01:35:41.793Z,15.10
2019-06-19T01:41:31.881Z,15.70
2019-06-19T01:47:13.024Z,15.87
2019-06-19T01:53:12.186Z,17.20
2019-06-19T01:59:02.422Z,15.90
2019-06-19T02:04:52.229Z,16.33
2019-06-19T02:10:41.813Z,16.27
2019-06-19T02:16:32.105Z,16.43
2019-06-19T02:22:21.819Z,16.13
2019-06-19T02:28:11.639Z,15.80
2019-06-19T02:33:52.276Z,17.20
2019-06-19T02:39:42.224Z,17.87
2019-06-19T02:45:23.361Z,17.63
2019-06-19T02:51:13.060Z,16.70
2019-06-19T02:56:53.909Z,16.70
2019-06-19T03:02:43.680Z,16.47
2019-06-19T03:08:33.311Z,15.97
2019-06-19T03:14:23.138Z,16.20
2019-06-19T03:20:12.776Z,17.30
2019-06-19T03:26:02.488Z,15.63
2019-06-19T03:31:36.561Z,15.70
2019-06-19T03:37:16.908Z,16.23
2019-06-19T03:42:57.764Z,17.07
2019-06-19T03:48:38.796Z,14.87
2019-06-19T03:54:19.682Z,15.50
2019-06-19T04:00:00.272Z,14.20
2019-06-19T04:05:49.763Z,13.50
2019-06-19T04:11:30.335Z,13.50
2019-06-19T04:17:11.075Z,12.20
2019-06-19T04:22:51.687Z,12.70
2019-06-19T04:28:38.315Z,11.03
2019-06-19T04:34:10.454Z,11.43
2019-06-19T04:40:00.303Z,11.50
2019-06-19T04:45:50.244Z,10.93
2019-06-19T04:51:39.874Z,10.70
2019-06-19T04:57:20.439Z,11.30
2019-06-19T05:03:00.978Z,12.13
2019-06-19T05:08:48.402Z,12.63
2019-06-19T05:14:29.205Z,11.90
2019-06-19T05:20:18.602Z,12.00
2019-06-19T05:26:08.466Z,11.80
2019-06-19T05:31:58.577Z,12.47
2019-06-19T05:37:48.532Z,11.80
2019-06-19T05:43:29.584Z,11.57
2019-06-19T05:49:19.545Z,10.40
2019-06-19T05:55:09.354Z,10.60
2019-06-19T06:00:50.405Z,10.80
2019-06-19T06:06:40.187Z,11.13
2019-06-19T06:12:30.028Z,11.53
2019-06-19T06:18:19.483Z,11.40
2019-06-19T06:23:59.958Z,11.10
2019-06-19T06:29:49.677Z,10.53
2019-06-19T06:35:30.366Z,11.13
2019-06-19T06:41:10.920Z,11.23
2019-06-19T06:47:00.639Z,11.47
2019-06-19T06:52:46.726Z,11.00
2019-06-19T06:58:27.443Z,11.20
2019-06-19T07:04:08.709Z,11.30
2019-06-19T07:09:58.610Z,11.43
2019-06-19T07:15:42.379Z,10.60
2019-06-19T07:21:30.725Z,11.80
2019-06-19T07:27:20.754Z,11.50
2019-06-19T07:33:01.631Z,11.00
2019-06-19T07:38:42.451Z,10.00
2019-06-19T07:44:32.063Z,11.57
2019-06-19T07:50:21.616Z,10.40
2019-06-19T07:56:11.409Z,11.13
2019-06-19T08:02:04.455Z,11.20
2019-06-19T08:07:43.861Z,10.83
2019-06-19T08:13:24.434Z,11.00
2019-06-19T08:19:14.204Z,10.10
2019-06-19T08:25:03.976Z,10.43
2019-06-19T08:30:53.365Z,10.70
2019-06-19T08:36:43.143Z,10.93
2019-06-19T08:42:32.973Z,11.37
2019-06-19T08:48:22.799Z,11.90
2019-06-19T08:54:03.983Z,11.63
2019-06-19T08:59:44.841Z,12.40
2019-06-19T09:05:26.071Z,11.40
2019-06-19T09:11:13.965Z,11.37
2019-06-19T09:16:54.441Z,11.57
2019-06-19T09:22:35.313Z,11.60
2019-06-19T09:28:24.799Z,11.10
2019-06-19T09:34:05.345Z,9.93
2019-06-19T09:39:46.003Z,12.20
2019-06-19T09:45:26.780Z,10.87
2019-06-19T09:51:16.381Z,12.17
2019-06-19T09:57:05.851Z,10.83
2019-06-19T10:02:56.230Z,11.50
2019-06-19T10:08:38.103Z,12.10
2019-06-19T10:13:55.173Z,12.30
2019-06-19T10:19:44.817Z,11.37
2019-06-19T10:25:34.713Z,11.60
2019-06-19T10:31:24.606Z,11.57
2019-06-19T10:37:05.509Z,11.63
2019-06-19T10:42:45.999Z,11.73
2019-06-19T10:48:35.740Z,12.37
2019-06-19T10:54:16.226Z,12.70
2019-06-19T10:59:56.774Z,11.40
2019-06-19T11:05:40.020Z,11.97
2019-06-19T11:11:20.215Z,12.27
2019-06-19T11:17:02.750Z,11.67
2019-06-19T11:22:34.508Z,11.23
2019-06-19T11:28:15.328Z,13.90
2019-06-19T11:34:04.909Z,12.23
2019-06-19T11:39:46.017Z,12.43
2019-06-19T11:45:26.742Z,12.80
2019-06-19T11:51:07.846Z,11.67
2019-06-19T11:56:48.508Z,12.30
2019-06-19T12:02:29.185Z,11.90
2019-06-19T12:08:09.945Z,11.73
2019-06-19T12:13:59.679Z,12.20
2019-06-19T12:19:40.581Z,12.67
2019-06-19T12:25:12.646Z,12.80
2019-06-19T12:31:02.297Z,15.20
2019-06-19T12:36:42.801Z,12.57
2019-06-19T12:42:32.525Z,13.13
2019-06-19T12:48:13.491Z,12.87
2019-06-19T12:53:54.644Z,12.73
2019-06-19T12:59:35.510Z,12.00
2019-06-19T13:05:25.004Z,13.30
2019-06-19T13:11:05.818Z,12.63
2019-06-19T13:16:46.680Z,12.17
2019-06-19T13:22:27.296Z,12.70
2019-06-19T13:28:07.869Z,12.50
2019-06-19T13:33:48.641Z,12.00
2019-06-19T13:39:29.531Z,12.70
2019-06-19T13:45:10.614Z,11.70
2019-06-19T13:50:51.452Z,11.70
2019-06-19T13:56:32.011Z,12.37
2019-06-19T14:02:12.772Z,12.40
2019-06-19T14:07:54.206Z,11.63
2019-06-19T14:13:44.152Z,10.37
2019-06-19T14:19:33.822Z,9.80
2019-06-19T14:25:14.610Z,9.33
2019-06-19T14:31:04.232Z,9.10
2019-06-19T14:36:44.966Z,9.20
2019-06-19T14:42:25.679Z,10.23
2019-06-19T14:48:06.814Z,10.97
2019-06-19T14:50:34.780Z,11.50
2019-06-19T14:53:02.667Z,11.00
2019-06-19T14:55:30.748Z,11.43
2019-06-19T14:57:58.831Z,10.90
2019-06-19T15:00:30.640Z,11.20
2019-06-19T15:02:58.621Z,11.30
2019-06-19T15:05:26.741Z,11.37
2019-06-19T15:07:59.407Z,11.77
2019-06-19T15:10:24.457Z,13.20
2019-06-19T15:12:52.475Z,11.80
2019-06-19T15:15:20.430Z,11.80
2019-06-19T15:17:49.085Z,13.30
2019-06-19T15:20:16.992Z,13.43
2019-06-19T15:22:44.986Z,13.00
2019-06-19T15:25:13.776Z,13.50
2019-06-19T15:27:41.814Z,13.77
2019-06-19T15:33:22.414Z,14.70
2019-06-19T15:39:12.483Z,13.30
2019-06-19T15:45:02.951Z,12.30
2019-06-19T15:50:43.970Z,13.87
2019-06-19T15:56:24.598Z,13.13
2019-06-19T16:02:14.182Z,13.20
2019-06-19T16:08:04.203Z,15.83
2019-06-19T16:13:53.987Z,12.87
2019-06-19T16:19:43.955Z,12.03
2019-06-19T16:25:33.640Z,11.77
2019-06-19T16:31:14.710Z,11.83
2019-06-19T16:37:04.352Z,12.83
2019-06-19T16:42:54.358Z,12.33
2019-06-19T16:48:35.048Z,12.10
2019-06-19T16:54:16.059Z,13.17
2019-06-19T16:59:57.082Z,13.13
2019-06-19T17:05:37.905Z,11.10
2019-06-19T17:11:27.436Z,11.43
2019-06-19T17:17:17.270Z,10.50
2019-06-19T17:22:58.073Z,11.17
2019-06-19T17:28:47.749Z,10.00
2019-06-19T17:34:37.229Z,9.70
2019-06-19T17:40:26.820Z,10.37
2019-06-19T17:46:07.494Z,10.70
2019-06-19T17:51:48.210Z,9.87
2019-06-19T17:57:14.026Z,8.77
2019-06-19T18:02:54.785Z,9.00
2019-06-19T18:08:44.529Z,9.57
2019-06-19T18:14:25.802Z,9.10
2019-06-19T18:20:15.872Z,9.97
2019-06-19T18:26:06.076Z,10.97
2019-06-19T18:31:46.647Z,10.60
2019-06-19T18:37:36.327Z,11.27
2019-06-19T18:43:26.121Z,11.33
2019-06-19T18:49:15.835Z,11.07
2019-06-19T18:54:56.471Z,10.97
2019-06-19T19:00:22.243Z,11.40
2019-06-19T19:06:03.265Z,12.00
2019-06-19T19:11:44.186Z,11.13
2019-06-19T19:17:25.028Z,11.93
2019-06-19T19:23:05.513Z,10.93
2019-06-19T19:28:46.083Z,11.87
2019-06-19T19:34:27.164Z,10.50
2019-06-19T19:39:58.869Z,11.23
2019-06-19T19:45:39.827Z,11.00
2019-06-19T19:51:21.049Z,10.20
2019-06-19T19:57:02.245Z,10.60
2019-06-19T20:02:42.769Z,10.97
2019-06-19T20:08:23.405Z,10.00
2019-06-19T20:14:04.516Z,11.10
2019-06-19T20:19:54.220Z,12.33
2019-06-19T20:25:34.941Z,12.30
2019-06-19T20:31:15.819Z,11.93
2019-06-19T20:37:05.437Z,12.43
2019-06-19T20:42:45.944Z,11.10
2019-06-19T20:48:26.672Z,10.90
2019-06-19T20:54:07.773Z,10.60
2019-06-19T20:59:48.478Z,11.83
2019-06-19T21:05:29.531Z,11.80
2019-06-19T21:11:19.901Z,11.70
2019-06-19T21:16:52.169Z,11.27
2019-06-19T21:22:32.727Z,11.80
2019-06-19T21:28:13.517Z,11.53
2019-06-19T21:33:54.420Z,12.07
2019-06-19T21:39:26.383Z,11.97
2019-06-19T21:45:08.122Z,12.33
2019-06-19T21:50:49.244Z,12.50
2019-06-19T21:56:39.076Z,12.43
2019-06-19T22:02:20.053Z,11.73
2019-06-19T22:08:00.810Z,12.37
2019-06-19T22:13:32.430Z,13.10
2019-06-19T22:19:13.212Z,12.00
2019-06-19T22:24:54.035Z,12.70
2019-06-19T22:30:42.129Z,12.90
2019-06-19T22:36:22.879Z,12.87
2019-06-19T22:42:11.347Z,13.43
2019-06-19T22:47:45.676Z,12.73
2019-06-19T22:53:26.503Z,13.37
2019-06-19T22:59:07.067Z,14.30
2019-06-19T23:04:47.872Z,13.07
2019-06-19T23:10:28.653Z,14.57
2019-06-19T23:16:00.709Z,13.80
2019-06-19T23:21:50.640Z,12.83
2019-06-19T23:27:40.273Z,12.87
2019-06-19T23:33:30.169Z,14.20
2019-06-19T23:39:10.676Z,13.17
2019-06-19T23:45:00.391Z,13.80
2019-06-19T23:50:50.324Z,13.97
2019-06-19T23:56:39.893Z,13.47
